createdAt,value
2018-08-18T00:01:30.868Z,101452.02
2018-08-18T00:04:00.196Z,101457.59
2018-08-18T00:06:28.613Z,101461.43
2018-08-18T00:08:57.015Z,101457.55
2018-08-18T00:11:25.489Z,101462.23
2018-08-18T00:13:55.991Z,101460.08
2018-08-18T00:16:29.070Z,101462.22
2018-08-18T00:18:59.416Z,101468.24
2018-08-18T00:21:30.620Z,101459.20
2018-08-18T00:24:13.737Z,101456.64
2018-08-18T00:26:42.125Z,101457.51
2018-08-18T00:29:11.139Z,101460.13
2018-08-18T00:31:41.471Z,101461.81
2018-08-18T00:34:09.926Z,101455.78
2018-08-18T00:36:38.322Z,101453.63
2018-08-18T00:39:10.919Z,101458.77
2018-08-18T00:41:39.624Z,101463.03
2018-08-18T00:44:09.443Z,101461.72
2018-08-18T00:46:37.862Z,101463.81
2018-08-18T00:49:07.203Z,101459.07
2018-08-18T00:51:37.868Z,101462.14
2018-08-18T00:56:38.664Z,101461.72
2018-08-18T00:59:07.100Z,101467.72
2018-08-18T01:01:35.612Z,101466.86
2018-08-18T01:04:08.375Z,101466.00
2018-08-18T01:06:38.537Z,101465.14
2018-08-18T01:09:11.962Z,101462.92
2018-08-18T01:11:40.565Z,101469.37
2018-08-18T01:14:15.337Z,101465.94
2018-08-18T01:16:48.824Z,101476.67
2018-08-18T01:19:18.040Z,101476.02
2018-08-18T01:21:51.493Z,101479.33
2018-08-18T01:24:20.710Z,101475.14
2018-08-18T01:26:49.572Z,101476.02
2018-08-18T01:29:19.050Z,101484.68
2018-08-18T01:31:47.971Z,101482.54
2018-08-18T01:34:16.440Z,101488.16
2018-08-18T01:36:44.849Z,101485.14
2018-08-18T01:39:14.433Z,101483.02
2018-08-18T01:41:42.960Z,101486.88
2018-08-18T01:44:13.665Z,101489.41
2018-08-18T01:46:42.654Z,101494.05
2018-08-18T01:49:33.639Z,101494.50
2018-08-18T01:52:04.377Z,101493.64
2018-08-18T01:54:33.187Z,101500.06
2018-08-18T01:57:06.617Z,101500.03
2018-08-18T01:59:35.262Z,101493.16
2018-08-18T02:02:03.808Z,101494.37
2018-08-18T02:04:32.228Z,101502.95
2018-08-18T02:07:15.489Z,101496.94
2018-08-18T02:09:44.457Z,101501.67
2018-08-18T02:12:12.844Z,101502.07
2018-08-18T02:14:41.279Z,101499.83
2018-08-18T02:17:36.209Z,101492.59
2018-08-18T02:20:07.264Z,101487.94
2018-08-18T02:22:35.625Z,101490.16
2018-08-18T02:25:04.182Z,101491.90
2018-08-18T02:27:32.584Z,101494.07
2018-08-18T02:30:13.392Z,101490.22
2018-08-18T02:32:41.821Z,101491.08
2018-08-18T02:35:10.295Z,101493.21
2018-08-18T02:37:38.698Z,101493.16
2018-08-18T02:40:16.138Z,101490.53
2018-08-18T02:42:44.617Z,101502.95
2018-08-18T02:45:13.782Z,101499.03
2018-08-18T02:47:42.556Z,101501.11
2018-08-18T02:50:12.346Z,101497.66
2018-08-18T02:52:40.806Z,101498.48
2018-08-18T02:55:10.816Z,101498.03
2018-08-18T02:57:40.560Z,101503.11
2018-08-18T03:00:25.832Z,101504.81
2018-08-18T03:02:54.227Z,101503.88
2018-08-18T03:05:22.763Z,101511.09
2018-08-18T03:07:52.066Z,101512.41
2018-08-18T03:10:25.613Z,101512.03
2018-08-18T03:12:58.751Z,101508.55
2018-08-18T03:16:07.539Z,101506.07
2018-08-18T03:18:43.251Z,101514.28
2018-08-18T03:21:11.748Z,101514.29
2018-08-18T03:23:50.149Z,101511.68
2018-08-18T03:26:21.160Z,101511.19
2018-08-18T03:28:51.109Z,101517.53
2018-08-18T03:31:19.864Z,101514.50
2018-08-18T03:33:48.276Z,101516.66
2018-08-18T03:36:26.893Z,101519.69
2018-08-18T03:38:56.191Z,101520.98
2018-08-18T03:41:25.453Z,101521.36
2018-08-18T03:43:54.555Z,101524.33
2018-08-18T03:46:23.008Z,101525.52
2018-08-18T03:48:51.834Z,101530.64
2018-08-18T03:51:20.627Z,101526.31
2018-08-18T03:53:49.076Z,101529.71
2018-08-18T03:56:17.519Z,101532.69
2018-08-18T03:58:50.472Z,101530.05
2018-08-18T04:02:00.192Z,101526.20
2018-08-18T04:04:32.899Z,101527.05
2018-08-18T04:07:01.974Z,101529.60
2018-08-18T04:09:31.528Z,101536.44
2018-08-18T04:12:01.710Z,101539.02
2018-08-18T04:14:35.376Z,101536.36
2018-08-18T04:17:03.902Z,101536.23
2018-08-18T04:19:32.332Z,101537.52
2018-08-18T04:22:00.743Z,101539.25
2018-08-18T04:24:36.366Z,101541.04
2018-08-18T04:27:04.871Z,101541.84
2018-08-18T04:29:33.256Z,101538.81
2018-08-18T04:32:02.255Z,101545.66
2018-08-18T04:34:30.741Z,101545.64
2018-08-18T04:37:00.300Z,101549.48
2018-08-18T04:39:28.702Z,101551.18
2018-08-18T04:41:57.180Z,101557.56
2018-08-18T04:44:25.639Z,101547.17
2018-08-18T04:46:54.095Z,101548.13
2018-08-18T04:49:22.526Z,101553.33
2018-08-18T04:51:50.955Z,101552.95
2018-08-18T04:54:19.800Z,101554.80
2018-08-18T04:56:48.247Z,101554.03
2018-08-18T04:59:16.640Z,101549.36
2018-08-18T05:01:45.061Z,101550.20
2018-08-18T05:04:13.860Z,101554.45
2018-08-18T05:06:43.547Z,101559.96
2018-08-18T05:09:13.761Z,101560.80
2018-08-18T05:11:42.251Z,101557.76
2018-08-18T05:14:10.602Z,101557.70
2018-08-18T05:16:38.952Z,101558.61
2018-08-18T05:19:08.317Z,101562.81
2018-08-18T05:21:36.643Z,101567.95
2018-08-18T05:24:22.173Z,101560.27
2018-08-18T05:26:51.441Z,101565.75
2018-08-18T05:29:19.907Z,101566.16
2018-08-18T05:31:48.463Z,101564.02
2018-08-18T05:34:16.933Z,101571.76
2018-08-18T05:36:45.699Z,101569.19
2018-08-18T05:39:14.185Z,101570.52
2018-08-18T05:41:42.632Z,101574.52
2018-08-18T05:44:11.110Z,101571.18
2018-08-18T05:46:39.523Z,101572.09
2018-08-18T05:49:12.987Z,101566.59
2018-08-18T05:51:44.892Z,101572.64
2018-08-18T05:54:14.356Z,101578.27
2018-08-18T05:56:44.253Z,101580.42
2018-08-18T05:59:12.672Z,101583.86
2018-08-18T06:01:41.816Z,101582.66
2018-08-18T06:04:13.563Z,101587.44
2018-08-18T06:06:42.729Z,101587.45
2018-08-18T06:09:13.486Z,101591.36
2018-08-18T06:11:42.131Z,101585.41
2018-08-18T06:14:11.700Z,101585.45
2018-08-18T06:16:40.477Z,101585.91
2018-08-18T06:19:09.020Z,101601.84
2018-08-18T06:21:37.478Z,101597.62
2018-08-18T06:24:06.024Z,101597.68
2018-08-18T06:26:34.573Z,101596.86
2018-08-18T06:29:03.079Z,101598.23
2018-08-18T06:31:32.061Z,101599.14
2018-08-18T06:34:00.500Z,101559.50
2018-08-18T06:36:28.892Z,101595.81
2018-08-18T06:38:57.288Z,101603.57
2018-08-18T06:41:25.845Z,101595.01
2018-08-18T06:43:54.247Z,101600.19
2018-08-18T06:46:22.691Z,101593.37
2018-08-18T06:48:51.077Z,101593.83
2018-08-18T06:51:19.536Z,101597.30
2018-08-18T06:53:48.959Z,101588.28
2018-08-18T06:56:18.381Z,101593.88
2018-08-18T06:58:46.880Z,101595.26
2018-08-18T07:01:15.344Z,101593.12
2018-08-18T07:03:45.317Z,101599.16
2018-08-18T07:06:15.177Z,101598.33
2018-08-18T07:08:48.928Z,101594.47
2018-08-18T07:11:17.392Z,101592.81
2018-08-18T07:13:46.386Z,101594.12
2018-08-18T07:16:14.849Z,101593.28
2018-08-18T07:18:43.294Z,101589.86
2018-08-18T07:21:11.733Z,101589.44
2018-08-18T07:23:40.210Z,101589.48
2018-08-18T07:26:09.991Z,101593.79
2018-08-18T07:28:39.203Z,101594.23
2018-08-18T07:31:07.648Z,101598.54
2018-08-18T07:33:36.166Z,101595.55
2018-08-18T07:36:04.640Z,101561.47
2018-08-18T07:38:33.100Z,101598.63
2018-08-18T07:41:02.497Z,101599.48
2018-08-18T07:43:33.066Z,101602.08
2018-08-18T07:46:03.019Z,101605.53
2018-08-18T07:48:31.774Z,101603.83
2018-08-18T07:51:00.192Z,101596.98
2018-08-18T07:53:28.634Z,101603.90
2018-08-18T07:55:57.057Z,101599.64
2018-08-18T07:58:25.903Z,101603.09
2018-08-18T08:00:56.963Z,101604.39
2018-08-18T08:03:25.452Z,101600.53
2018-08-18T08:05:53.905Z,101603.16
2018-08-18T08:08:22.347Z,101610.05
2018-08-18T08:10:51.230Z,101603.59
2018-08-18T08:13:19.652Z,101603.59
2018-08-18T08:15:48.109Z,101607.05
2018-08-18T08:18:16.558Z,101609.70
2018-08-18T08:20:45.314Z,101605.83
2018-08-18T08:23:13.820Z,101610.14
2018-08-18T08:25:42.301Z,101613.16
2018-08-18T08:28:10.744Z,101615.31
2018-08-18T08:30:39.176Z,101615.74
2018-08-18T08:33:07.685Z,101613.63
2018-08-18T08:35:37.888Z,101618.80
2018-08-18T08:38:06.551Z,101618.83
2018-08-18T08:40:35.219Z,101621.88
2018-08-18T08:43:03.735Z,101613.67
2018-08-18T08:45:32.276Z,101616.27
2018-08-18T08:48:00.688Z,101616.71
2018-08-18T08:50:29.157Z,101619.27
2018-08-18T08:52:58.100Z,101618.85
2018-08-18T08:55:27.890Z,101618.00
2018-08-18T08:57:56.352Z,101614.10
2018-08-18T09:00:24.799Z,101611.09
2018-08-18T09:02:53.867Z,101507.67
2018-08-18T09:05:22.399Z,101607.23
2018-08-18T09:07:50.845Z,101611.55
2018-08-18T09:10:19.352Z,101616.72
2018-08-18T09:12:47.732Z,101615.38
2018-08-18T09:15:17.316Z,101616.21
2018-08-18T09:17:45.850Z,101610.11
2018-08-18T09:20:17.466Z,101605.39
2018-08-18T09:22:58.452Z,101606.75
2018-08-18T09:25:28.049Z,101607.19
2018-08-18T09:27:59.670Z,101608.03
2018-08-18T09:30:30.191Z,101603.30
2018-08-18T09:32:59.284Z,101607.13
2018-08-18T09:35:27.785Z,101611.85
2018-08-18T09:38:01.471Z,101602.38
2018-08-18T09:40:32.093Z,101597.64
2018-08-18T09:43:04.165Z,101597.63
2018-08-18T09:45:32.689Z,101599.27
2018-08-18T09:48:01.152Z,101597.94
2018-08-18T09:50:29.599Z,101596.25
2018-08-18T09:52:58.003Z,101598.44
2018-08-18T09:55:26.488Z,101598.02
2018-08-18T09:57:54.978Z,101601.02
2018-08-18T10:00:27.757Z,101600.59
2018-08-18T10:02:56.251Z,101598.82
2018-08-18T10:05:24.714Z,101595.25
2018-08-18T10:07:53.151Z,101591.34
2018-08-18T10:10:21.593Z,101594.34
2018-08-18T10:12:50.045Z,101585.28
2018-08-18T10:15:18.503Z,101585.69
2018-08-18T10:17:46.928Z,101580.05
2018-08-18T10:20:15.409Z,101589.64
2018-08-18T10:22:45.332Z,101592.66
2018-08-18T10:25:13.776Z,101579.06
2018-08-18T10:27:42.156Z,101575.70
2018-08-18T10:30:10.763Z,101579.28
2018-08-18T10:32:55.694Z,101580.17
2018-08-18T10:35:32.444Z,101574.36
2018-08-18T10:38:02.472Z,101579.30
2018-08-18T10:40:30.981Z,101579.17
2018-08-18T10:42:59.473Z,101578.66
2018-08-18T10:45:27.889Z,101574.84
2018-08-18T10:47:56.399Z,101574.41
2018-08-18T10:51:35.254Z,101570.05
2018-08-18T10:54:03.721Z,101563.38
2018-08-18T10:56:32.224Z,101572.03
2018-08-18T10:59:13.160Z,101563.00
2018-08-18T11:01:56.935Z,101569.37
2018-08-18T11:04:25.516Z,101569.31
2018-08-18T11:06:53.944Z,101577.32
2018-08-18T11:09:22.369Z,101574.70
2018-08-18T11:11:50.918Z,101571.19
2018-08-18T11:14:19.337Z,101568.20
2018-08-18T11:16:48.025Z,101573.44
2018-08-18T11:19:16.433Z,101567.73
2018-08-18T11:21:45.569Z,101569.78
2018-08-18T11:24:13.924Z,101570.63
2018-08-18T11:26:42.362Z,101570.61
2018-08-18T11:29:17.369Z,101566.94
2018-08-18T11:31:46.196Z,101570.86
2018-08-18T11:34:16.841Z,101576.03
2018-08-18T11:36:59.389Z,101578.59
2018-08-18T11:39:28.676Z,101567.62
2018-08-18T11:41:58.362Z,101566.53
2018-08-18T11:44:26.830Z,101567.62
2018-08-18T11:46:55.278Z,101563.30
2018-08-18T11:49:23.675Z,101561.44
2018-08-18T11:51:52.272Z,101559.72
2018-08-18T11:54:20.720Z,101556.31
2018-08-18T11:56:53.155Z,101555.98
2018-08-18T11:59:21.581Z,101542.95
2018-08-18T12:01:51.801Z,101539.41
2018-08-18T12:04:21.367Z,101539.03
2018-08-18T12:06:54.866Z,101534.48
2018-08-18T12:09:23.662Z,101537.32
2018-08-18T12:11:52.421Z,101540.42
2018-08-18T12:14:21.439Z,101535.37
2018-08-18T12:16:49.952Z,101534.86
2018-08-18T12:19:18.452Z,101536.87
2018-08-18T12:21:47.596Z,101539.73
2018-08-18T12:24:17.820Z,101532.48
2018-08-18T12:26:58.422Z,101531.42
2018-08-18T12:29:27.855Z,101533.78
2018-08-18T12:31:56.268Z,101532.83
2018-08-18T12:34:24.896Z,101536.45
2018-08-18T12:36:53.433Z,101514.64
2018-08-18T12:39:21.760Z,101523.89
2018-08-18T12:41:50.213Z,101517.96
2018-08-18T12:44:22.780Z,101508.97
2018-08-18T12:46:51.241Z,101510.69
2018-08-18T12:49:20.314Z,101507.72
2018-08-18T12:51:48.789Z,101509.27
2018-08-18T12:54:17.187Z,101504.05
2018-08-18T12:56:45.749Z,101506.33
2018-08-18T12:59:14.537Z,101504.62
2018-08-18T13:01:48.561Z,101499.70
2018-08-18T13:04:19.622Z,101505.82
2018-08-18T13:06:49.665Z,101495.00
2018-08-18T13:09:20.446Z,101495.91
2018-08-18T13:11:50.650Z,101488.23
2018-08-18T13:14:25.422Z,101480.79
2018-08-18T13:16:53.957Z,101482.09
2018-08-18T13:19:32.446Z,101482.81
2018-08-18T13:22:00.919Z,101484.59
2018-08-18T13:24:31.278Z,101487.03
2018-08-18T13:27:00.525Z,101479.59
2018-08-18T13:29:28.913Z,101479.42
2018-08-18T13:31:57.401Z,101469.98
2018-08-18T13:34:25.905Z,101475.44
2018-08-18T13:36:54.349Z,101469.20
2018-08-18T13:39:22.772Z,101464.69
2018-08-18T13:41:51.193Z,101465.72
2018-08-18T13:44:26.215Z,101462.52
2018-08-18T13:46:54.681Z,101463.83
2018-08-18T13:49:26.833Z,101468.78
2018-08-18T13:51:55.270Z,101459.63
2018-08-18T13:54:23.723Z,101453.71
2018-08-18T13:56:52.219Z,101459.29
2018-08-18T13:59:41.727Z,101463.56
2018-08-18T14:02:10.582Z,101453.61
2018-08-18T14:04:44.146Z,101445.01
2018-08-18T14:07:13.139Z,101450.30
2018-08-18T14:09:43.717Z,101445.97
2018-08-18T14:12:15.248Z,101449.05
2018-08-18T14:14:43.995Z,101443.41
2018-08-18T14:17:13.298Z,101453.30
2018-08-18T14:19:41.917Z,101439.66
2018-08-18T14:22:11.047Z,101436.25
2018-08-18T14:24:41.049Z,101445.81
2018-08-18T14:27:12.709Z,101438.39
2018-08-18T14:29:41.195Z,101437.91
2018-08-18T14:32:15.172Z,101442.33
2018-08-18T14:34:49.219Z,101441.47
2018-08-18T14:37:17.624Z,101444.31
2018-08-18T14:39:46.032Z,101443.87
2018-08-18T14:42:14.500Z,101445.35
2018-08-18T14:44:43.049Z,101448.88
2018-08-18T14:47:12.105Z,101442.34
2018-08-18T14:49:40.520Z,101440.56
2018-08-18T14:52:08.904Z,101450.92
2018-08-18T14:54:39.668Z,101440.16
2018-08-18T14:57:08.140Z,101437.84
2018-08-18T14:59:38.062Z,101434.84
2018-08-18T15:02:07.927Z,101440.46
2018-08-18T15:04:36.581Z,101436.80
2018-08-18T15:07:05.136Z,101431.81
2018-08-18T15:09:41.692Z,101431.41
2018-08-18T15:12:10.275Z,101433.67
2018-08-18T15:14:38.891Z,101423.37
2018-08-18T15:17:07.430Z,101431.72
2018-08-18T15:19:35.876Z,101428.80
2018-08-18T15:22:07.013Z,101428.90
2018-08-18T15:24:36.392Z,101431.56
2018-08-18T15:27:04.906Z,101428.65
2018-08-18T15:29:33.328Z,101428.77
2018-08-18T15:32:01.760Z,101421.13
2018-08-18T15:34:30.198Z,101423.94
2018-08-18T15:36:58.680Z,101434.48
2018-08-18T15:39:28.673Z,101425.14
2018-08-18T15:41:58.607Z,101428.06
2018-08-18T15:44:27.051Z,101425.84
2018-08-18T15:46:55.504Z,101423.54
2018-08-18T15:49:23.934Z,101421.02
2018-08-18T15:51:52.692Z,101414.49
2018-08-18T15:54:23.762Z,101415.30
2018-08-18T15:56:52.093Z,101415.53
2018-08-18T15:59:20.550Z,101416.91
2018-08-18T16:01:49.086Z,101415.34
2018-08-18T16:04:17.529Z,101413.53
2018-08-18T16:06:46.277Z,101412.03
2018-08-18T16:09:14.789Z,101414.73
2018-08-18T16:11:43.185Z,101407.70
2018-08-18T16:14:11.603Z,101416.22
2018-08-18T16:16:55.786Z,101415.72
2018-08-18T16:19:24.627Z,101408.27
2018-08-18T16:21:53.104Z,101405.89
2018-08-18T16:24:46.256Z,101414.02
2018-08-18T16:27:14.883Z,101408.85
2018-08-18T16:29:43.325Z,101409.70
2018-08-18T16:32:27.458Z,101411.34
2018-08-18T16:35:02.528Z,101416.68
2018-08-18T16:37:31.549Z,101417.47
2018-08-18T16:39:59.968Z,101414.69
2018-08-18T16:42:28.495Z,101420.77
2018-08-18T16:44:56.942Z,101422.03
2018-08-18T16:47:25.447Z,101419.46
2018-08-18T16:49:53.843Z,101419.02
2018-08-18T16:52:22.303Z,101418.43
2018-08-18T16:54:50.688Z,101419.58
2018-08-18T16:57:19.073Z,101416.73
2018-08-18T16:59:47.521Z,101419.28
2018-08-18T17:02:30.049Z,101422.70
2018-08-18T17:04:58.724Z,101422.03
2018-08-18T17:07:27.555Z,101418.99
2018-08-18T17:09:56.061Z,101423.72
2018-08-18T17:12:28.327Z,101421.91
2018-08-18T17:14:57.731Z,101422.19
2018-08-18T17:17:26.716Z,101424.40
2018-08-18T17:19:55.243Z,101426.66
2018-08-18T17:22:23.668Z,101436.67
2018-08-18T17:24:52.196Z,101433.41
2018-08-18T17:27:20.596Z,101428.98
2018-08-18T17:29:51.588Z,101438.08
2018-08-18T17:32:20.028Z,101439.66
2018-08-18T17:34:48.424Z,101439.05
2018-08-18T17:37:16.872Z,101436.70
2018-08-18T17:39:45.367Z,101446.55
2018-08-18T17:42:13.787Z,101445.02
2018-08-18T17:44:42.345Z,101443.19
2018-08-18T17:47:11.504Z,101442.59
2018-08-18T17:49:46.299Z,101448.05
2018-08-18T17:52:15.500Z,101447.44
2018-08-18T17:54:49.567Z,101445.41
2018-08-18T17:57:18.005Z,101444.70
2018-08-18T17:59:46.379Z,101445.73
2018-08-18T18:02:16.280Z,101452.35
2018-08-18T18:04:45.589Z,101446.59
2018-08-18T18:07:14.097Z,101449.25
2018-08-18T18:09:42.560Z,101448.48
2018-08-18T18:12:21.972Z,101454.25
2018-08-18T18:14:50.429Z,101454.02
2018-08-18T18:17:19.853Z,101460.71
2018-08-18T18:19:48.288Z,101458.76
2018-08-18T18:22:16.749Z,101465.03
2018-08-18T18:24:45.326Z,101465.20
2018-08-18T18:27:13.755Z,101467.48
2018-08-18T18:29:44.074Z,101467.56
2018-08-18T18:32:12.626Z,101462.47
2018-08-18T18:34:41.371Z,101469.52
2018-08-18T18:37:09.831Z,101477.53
2018-08-18T18:39:56.877Z,101476.91
2018-08-18T18:42:25.982Z,101480.15
2018-08-18T18:44:54.549Z,101478.98
2018-08-18T18:47:22.991Z,101484.34
2018-08-18T18:49:51.440Z,101493.09
2018-08-18T18:52:20.281Z,101497.89
2018-08-18T18:54:48.980Z,101500.09
2018-08-18T18:57:17.524Z,101502.00
2018-08-18T18:59:51.811Z,101509.03
2018-08-18T19:02:21.463Z,101503.89
2018-08-18T19:04:49.888Z,101507.45
2018-08-18T19:07:18.409Z,101513.55
2018-08-18T19:09:48.587Z,101515.40
2018-08-18T19:12:17.135Z,101523.21
2018-08-18T19:14:45.523Z,101523.31
2018-08-18T19:17:13.942Z,101524.70
2018-08-18T19:19:42.375Z,101533.09
2018-08-18T19:22:10.910Z,101528.83
2018-08-18T19:24:39.288Z,101537.56
2018-08-18T19:27:07.803Z,101534.57
2018-08-18T19:29:36.203Z,101531.20
2018-08-18T19:32:04.675Z,101534.25
2018-08-18T19:34:33.101Z,101537.73
2018-08-18T19:37:08.308Z,101534.27
2018-08-18T19:39:37.488Z,101536.52
2018-08-18T19:42:11.867Z,101537.50
2018-08-18T19:44:43.033Z,101541.38
2018-08-18T19:47:11.542Z,101538.33
2018-08-18T19:49:44.281Z,101543.91
2018-08-18T19:52:13.835Z,101543.97
2018-08-18T19:54:50.744Z,101544.95
2018-08-18T19:57:26.154Z,101545.89
2018-08-18T20:00:00.204Z,101545.67
2018-08-18T20:02:37.543Z,101547.43
2018-08-18T20:05:06.632Z,101546.73
2018-08-18T20:07:35.133Z,101548.09
2018-08-18T20:10:03.616Z,101547.69
2018-08-18T20:12:32.043Z,101547.67
2018-08-18T20:15:01.043Z,101550.84
2018-08-18T20:17:29.631Z,101546.60
2018-08-18T20:19:58.078Z,101550.08
2018-08-18T20:22:26.612Z,101547.09
2018-08-18T20:24:55.037Z,101550.20
2018-08-18T20:27:23.619Z,101548.48
2018-08-18T20:29:52.104Z,101546.32
2018-08-18T20:32:20.881Z,101544.72
2018-08-18T20:34:49.268Z,101542.56
2018-08-18T20:37:17.711Z,101545.20
2018-08-18T20:39:46.190Z,101547.06
2018-08-18T20:42:14.956Z,101550.58
2018-08-18T20:44:43.394Z,101551.06
2018-08-18T20:47:11.852Z,101560.22
2018-08-18T20:49:40.276Z,101558.08
2018-08-18T20:52:09.651Z,101554.22
2018-08-18T20:54:38.170Z,101558.64
2018-08-18T20:57:06.654Z,101555.66
2018-08-18T20:59:35.091Z,101556.56
2018-08-18T21:02:03.633Z,101554.47
2018-08-18T21:04:32.047Z,101556.19
2018-08-18T21:07:00.472Z,101557.55
2018-08-18T21:09:30.401Z,101557.60
2018-08-18T21:11:58.820Z,101564.97
2018-08-18T21:14:29.925Z,101565.42
2018-08-18T21:16:58.544Z,101565.89
2018-08-18T21:19:27.488Z,101565.53
2018-08-18T21:21:56.611Z,101562.08
2018-08-18T21:24:25.032Z,101565.89
2018-08-18T21:26:53.477Z,101565.89
2018-08-18T21:29:24.289Z,101562.91
2018-08-18T21:31:52.755Z,101566.89
2018-08-18T21:34:21.263Z,101559.63
2018-08-18T21:36:49.705Z,101573.95
2018-08-18T21:39:18.141Z,101567.91
2018-08-18T21:41:47.692Z,101567.91
2018-08-18T21:44:16.307Z,101571.38
2018-08-18T21:46:44.966Z,101580.11
2018-08-18T21:49:13.680Z,101575.80
2018-08-18T21:51:42.122Z,101584.45
2018-08-18T21:54:10.631Z,101580.98
2018-08-18T21:56:42.434Z,101585.33
2018-08-18T21:59:14.029Z,101582.78
2018-08-18T22:01:42.628Z,101586.66
2018-08-18T22:04:11.901Z,101586.23
2018-08-18T22:06:40.483Z,101591.00
2018-08-18T22:09:20.171Z,101582.86
2018-08-18T22:11:48.616Z,101585.92
2018-08-18T22:14:18.003Z,101594.19
2018-08-18T22:16:54.621Z,101603.28
2018-08-18T22:19:23.244Z,101600.72
2018-08-18T22:21:51.724Z,101602.02
2018-08-18T22:24:20.266Z,101605.03
2018-08-18T22:26:48.932Z,101608.47
2018-08-18T22:29:17.413Z,101602.88
2018-08-18T22:31:45.843Z,101610.24
2018-08-18T22:34:14.242Z,101606.44
2018-08-18T22:36:42.763Z,101603.91
2018-08-18T22:39:12.050Z,101605.61
2018-08-18T22:41:44.293Z,101608.21
2018-08-18T22:44:12.711Z,101609.51
2018-08-18T22:46:41.120Z,101611.73
2018-08-18T22:49:09.583Z,101608.27
2018-08-18T22:51:38.407Z,101608.27
2018-08-18T22:54:06.901Z,101612.61
2018-08-18T22:56:35.340Z,101609.17
2018-08-18T22:59:05.387Z,101613.93
2018-08-18T23:01:35.575Z,101610.47
2018-08-18T23:04:05.075Z,101611.77
2018-08-18T23:06:36.636Z,101614.84
2018-08-18T23:09:06.690Z,101613.13
2018-08-18T23:11:35.876Z,101614.41
2018-08-18T23:14:04.926Z,101618.75
2018-08-18T23:16:33.399Z,101610.56
2018-08-18T23:19:01.888Z,101604.97
2018-08-18T23:21:30.878Z,101607.97
2018-08-18T23:24:01.768Z,101607.53
2018-08-18T23:26:30.197Z,101611.85
2018-08-18T23:28:58.645Z,101615.31
2018-08-18T23:31:27.072Z,101613.63
2018-08-18T23:33:55.514Z,101610.15
2018-08-18T23:36:24.083Z,101611.03
2018-08-18T23:38:58.424Z,101607.18
2018-08-18T23:41:26.926Z,101603.30
2018-08-18T23:43:55.804Z,101609.34
2018-08-18T23:46:24.499Z,101605.03
2018-08-18T23:48:53.372Z,101608.92
2018-08-18T23:51:26.989Z,101606.34
2018-08-18T23:53:55.424Z,101603.31
2018-08-18T23:56:27.564Z,101605.05
2018-08-18T23:58:57.550Z,101602.91
